createdAt,value
2022-08-02T00:01:15.382Z,10.43
2022-08-02T00:04:05.216Z,4.75
2022-08-02T00:06:53.444Z,4.50
2022-08-02T00:09:41.681Z,8.00
2022-08-02T00:12:30.020Z,4.22
2022-08-02T00:15:18.250Z,3.95
2022-08-02T00:18:06.506Z,7.78
2022-08-02T00:20:56.052Z,8.00
2022-08-02T00:24:29.383Z,6.25
2022-08-02T00:26:52.460Z,5.57
2022-08-02T00:29:51.960Z,5.40
2022-08-02T00:32:40.859Z,4.57
2022-08-02T00:35:29.073Z,6.32
2022-08-02T00:38:18.741Z,6.30
2022-08-02T00:41:13.658Z,7.18
2022-08-02T00:44:01.806Z,6.15
2022-08-02T00:46:50.293Z,9.07
2022-08-02T00:49:39.006Z,7.55
2022-08-02T00:52:27.223Z,4.72
2022-08-02T00:55:17.468Z,8.07
2022-08-02T00:58:11.569Z,7.75
2022-08-02T01:01:02.025Z,7.13
2022-08-02T01:03:50.395Z,7.60
2022-08-02T01:06:40.154Z,9.32
2022-08-02T01:09:28.399Z,7.80
2022-08-02T01:12:17.985Z,6.05
2022-08-02T01:15:09.806Z,8.07
2022-08-02T01:18:03.836Z,5.03
2022-08-02T01:21:32.653Z,4.70
2022-08-02T01:24:42.021Z,5.70
2022-08-02T01:27:40.963Z,6.03
2022-08-02T01:30:33.095Z,7.57
2022-08-02T01:33:24.158Z,6.80
2022-08-02T01:36:16.147Z,8.57
2022-08-02T01:39:06.312Z,10.25
2022-08-02T01:41:58.953Z,6.20
2022-08-02T01:44:47.995Z,7.38
2022-08-02T01:47:41.434Z,9.25
2022-08-02T01:50:33.630Z,8.43
2022-08-02T01:53:22.702Z,4.45
2022-08-02T01:56:12.646Z,6.88
2022-08-02T01:59:01.043Z,7.07
2022-08-02T02:01:52.079Z,6.60
2022-08-02T02:04:43.320Z,7.55
2022-08-02T02:07:34.627Z,8.98
2022-08-02T02:10:27.676Z,5.07
2022-08-02T02:13:20.032Z,7.78
2022-08-02T02:16:09.091Z,8.55
2022-08-02T02:18:58.185Z,4.75
2022-08-02T02:21:47.755Z,11.70
2022-08-02T02:24:36.788Z,5.50
2022-08-02T02:27:25.796Z,6.00
2022-08-02T02:30:14.707Z,8.88
2022-08-02T02:33:06.353Z,6.85
2022-08-02T02:35:55.085Z,8.05
2022-08-02T02:38:46.367Z,5.18
2022-08-02T02:41:34.909Z,7.35
2022-08-02T02:44:24.575Z,8.27
2022-08-02T02:47:15.356Z,5.90
2022-08-02T02:50:03.905Z,6.43
2022-08-02T02:52:53.374Z,4.18
2022-08-02T02:56:02.038Z,6.75
2022-08-02T02:58:52.773Z,10.05
2022-08-02T03:01:56.658Z,6.33
2022-08-02T03:04:56.105Z,5.50
2022-08-02T03:07:46.059Z,9.45
2022-08-02T03:10:35.566Z,6.47
2022-08-02T03:13:25.347Z,9.02
2022-08-02T03:16:21.558Z,7.65
2022-08-02T03:19:09.759Z,10.95
2022-08-02T03:21:57.941Z,12.75
2022-08-02T03:24:46.155Z,6.57
2022-08-02T03:27:34.371Z,12.60
2022-08-02T03:30:27.607Z,9.35
2022-08-02T03:33:15.949Z,6.72
2022-08-02T03:36:09.466Z,14.15
2022-08-02T03:38:58.974Z,5.68
2022-08-02T03:41:47.950Z,5.57
2022-08-02T03:44:39.441Z,6.18
2022-08-02T03:47:30.416Z,8.48
2022-08-02T03:53:09.015Z,12.13
2022-08-02T03:56:08.411Z,7.13
2022-08-02T03:59:07.887Z,7.80
2022-08-02T04:01:56.073Z,9.98
2022-08-02T04:04:45.556Z,6.47
2022-08-02T04:08:03.573Z,17.30
2022-08-02T04:10:59.312Z,8.60
2022-08-02T04:13:47.544Z,7.80
2022-08-02T04:16:43.430Z,9.02
2022-08-02T04:19:37.431Z,6.45
2022-08-02T04:22:31.238Z,8.18
2022-08-02T04:25:34.294Z,9.48
2022-08-02T04:28:28.335Z,10.55
2022-08-02T04:31:19.538Z,9.55
2022-08-02T04:34:07.873Z,8.77
2022-08-02T04:36:56.557Z,10.10
2022-08-02T04:39:46.133Z,8.85
2022-08-02T04:42:34.329Z,13.13
2022-08-02T04:45:23.376Z,11.43
2022-08-02T04:48:11.907Z,11.15
2022-08-02T04:51:00.334Z,9.38
2022-08-02T04:53:48.505Z,10.43
2022-08-02T04:56:39.377Z,7.07
2022-08-02T04:59:27.913Z,8.50
2022-08-02T05:02:16.076Z,6.55
2022-08-02T05:05:08.336Z,10.65
2022-08-02T05:07:58.755Z,8.00
2022-08-02T05:10:46.966Z,9.95
2022-08-02T05:13:36.468Z,10.63
2022-08-02T05:16:44.652Z,10.85
2022-08-02T05:19:32.795Z,7.88
2022-08-02T05:22:20.998Z,10.13
2022-08-02T05:25:10.378Z,12.00
2022-08-02T05:27:58.549Z,8.32
2022-08-02T05:30:48.052Z,9.82
2022-08-02T05:33:37.810Z,9.48
2022-08-02T05:36:25.993Z,16.15
2022-08-02T05:39:19.181Z,8.88
2022-08-02T05:42:08.265Z,6.55
2022-08-02T05:44:56.494Z,7.97
2022-08-02T05:47:46.062Z,6.25
2022-08-02T05:50:38.815Z,10.43
2022-08-02T05:53:37.147Z,6.85
2022-08-02T05:56:30.102Z,12.93
2022-08-02T05:59:27.406Z,7.03
2022-08-02T06:02:30.511Z,4.82
2022-08-02T06:05:22.714Z,11.35
2022-08-02T06:08:14.262Z,10.63
2022-08-02T06:11:03.586Z,17.67
2022-08-02T06:13:54.288Z,9.15
2022-08-02T06:16:44.588Z,11.50
2022-08-02T06:19:36.565Z,8.40
2022-08-02T06:22:44.830Z,7.38
2022-08-02T06:25:48.429Z,12.50
2022-08-02T06:28:40.420Z,12.88
2022-08-02T06:31:28.627Z,11.23
2022-08-02T06:34:16.832Z,8.80
2022-08-02T06:37:14.830Z,10.93
2022-08-02T06:40:12.966Z,7.63
2022-08-02T06:43:11.715Z,8.57
2022-08-02T06:46:57.208Z,6.40
2022-08-02T06:49:08.236Z,9.82
2022-08-02T06:51:56.541Z,8.77
2022-08-02T06:54:44.743Z,7.63
2022-08-02T06:57:35.053Z,4.82
2022-08-02T07:00:23.294Z,8.82
2022-08-02T07:03:11.686Z,7.22
2022-08-02T07:05:59.921Z,13.15
2022-08-02T07:09:11.264Z,6.30
2022-08-02T07:11:57.646Z,7.55
2022-08-02T07:14:47.178Z,7.50
2022-08-02T07:17:36.213Z,5.70
2022-08-02T07:20:24.447Z,6.43
2022-08-02T07:23:12.672Z,10.45
2022-08-02T07:26:03.330Z,5.90
2022-08-02T07:28:52.562Z,7.03
2022-08-02T07:31:42.092Z,5.60
2022-08-02T07:34:30.275Z,6.53
2022-08-02T07:37:35.278Z,6.30
2022-08-02T07:40:28.335Z,8.98
2022-08-02T07:43:16.991Z,7.65
2022-08-02T07:48:47.868Z,5.43
2022-08-02T07:51:37.025Z,4.90
2022-08-02T07:54:25.956Z,9.60
2022-08-02T07:57:14.292Z,6.82
2022-08-02T08:00:02.705Z,8.32
2022-08-02T08:02:51.016Z,9.45
2022-08-02T08:05:41.186Z,14.80
2022-08-02T08:08:29.485Z,9.38
2022-08-02T08:11:45.235Z,8.80
2022-08-02T08:14:34.295Z,12.38
2022-08-02T08:17:22.642Z,7.30
2022-08-02T08:20:15.663Z,6.50
2022-08-02T08:23:05.988Z,8.35
2022-08-02T08:25:54.270Z,6.55
2022-08-02T08:28:42.608Z,7.35
2022-08-02T08:31:30.916Z,4.75
2022-08-02T08:34:19.285Z,6.10
2022-08-02T08:37:07.574Z,7.32
2022-08-02T08:39:58.981Z,11.43
2022-08-02T08:42:47.420Z,7.97
2022-08-02T08:45:36.000Z,11.80
2022-08-02T08:48:30.825Z,7.25
2022-08-02T08:51:23.332Z,5.55
2022-08-02T08:54:33.116Z,14.15
2022-08-02T08:57:22.889Z,19.73
2022-08-02T09:00:14.014Z,8.50
2022-08-02T09:03:04.206Z,6.47
2022-08-02T09:05:52.651Z,10.75
2022-08-02T09:08:40.983Z,5.72
2022-08-02T09:11:29.403Z,4.03
2022-08-02T09:14:29.709Z,5.78
2022-08-02T09:17:18.806Z,10.48
2022-08-02T09:20:13.375Z,19.35
2022-08-02T09:23:12.654Z,6.22
2022-08-02T09:26:07.468Z,5.35
2022-08-02T09:29:09.360Z,6.18
2022-08-02T09:32:07.368Z,8.65
2022-08-02T09:34:55.938Z,10.88
2022-08-02T09:37:48.384Z,14.98
2022-08-02T09:40:37.745Z,7.72
2022-08-02T09:43:52.399Z,4.60
2022-08-02T09:46:52.501Z,7.97
2022-08-02T09:49:52.476Z,7.40
2022-08-02T09:52:44.628Z,5.00
2022-08-02T09:55:33.372Z,7.78
2022-08-02T09:58:22.677Z,5.82
2022-08-02T10:01:11.590Z,14.10
2022-08-02T10:04:52.584Z,5.60
2022-08-02T10:07:43.932Z,5.23
2022-08-02T10:10:32.384Z,8.07
2022-08-02T10:13:21.933Z,5.75
2022-08-02T10:16:15.950Z,3.33
2022-08-02T10:19:06.209Z,3.58
2022-08-02T10:21:58.416Z,5.80
2022-08-02T10:24:48.865Z,3.83
2022-08-02T10:28:03.684Z,5.43
2022-08-02T10:30:49.846Z,4.90
2022-08-02T10:33:40.219Z,4.47
2022-08-02T10:36:46.070Z,8.63
2022-08-02T10:39:40.839Z,6.97
2022-08-02T10:43:00.931Z,5.28
2022-08-02T10:45:52.438Z,5.45
2022-08-02T10:49:37.489Z,4.40
2022-08-02T10:52:17.818Z,4.18
2022-08-02T10:55:14.676Z,7.07
2022-08-02T10:58:19.368Z,6.45
2022-08-02T11:01:38.871Z,3.90
2022-08-02T11:04:30.778Z,4.78
2022-08-02T11:07:20.641Z,3.47
2022-08-02T11:10:38.420Z,2.80
2022-08-02T11:13:30.169Z,5.75
2022-08-02T11:16:18.501Z,3.92
2022-08-02T11:19:07.190Z,3.60
2022-08-02T11:22:02.334Z,3.65
2022-08-02T11:24:51.162Z,5.35
2022-08-02T11:27:45.163Z,4.97
2022-08-02T11:31:02.612Z,5.85
2022-08-02T11:33:52.477Z,4.55
2022-08-02T11:40:19.500Z,4.47
2022-08-02T11:43:21.332Z,5.60
2022-08-02T11:46:17.082Z,4.15
2022-08-02T11:49:17.075Z,1.75
2022-08-02T11:52:45.945Z,7.60
2022-08-02T11:55:34.319Z,5.55
2022-08-02T11:58:48.442Z,5.03
2022-08-02T12:01:55.932Z,5.13
2022-08-02T12:04:44.550Z,5.85
2022-08-02T12:07:36.186Z,5.13
2022-08-02T12:10:25.801Z,5.68
2022-08-02T12:13:14.250Z,3.70
2022-08-02T12:16:25.937Z,3.72
2022-08-02T12:19:23.361Z,3.97
2022-08-02T12:22:15.559Z,2.50
2022-08-02T12:25:34.189Z,4.05
2022-08-02T12:28:26.758Z,8.32
2022-08-02T12:31:15.151Z,4.93
2022-08-02T12:34:15.175Z,3.70
2022-08-02T12:39:54.540Z,4.63
2022-08-02T12:42:47.585Z,2.30
2022-08-02T12:45:49.009Z,5.72
2022-08-02T12:48:52.310Z,4.32
2022-08-02T12:51:55.615Z,3.13
2022-08-02T12:54:49.980Z,1.60
2022-08-02T12:57:52.680Z,2.05
2022-08-02T13:00:41.819Z,3.55
2022-08-02T13:04:09.554Z,2.80
2022-08-02T13:06:45.905Z,1.70
2022-08-02T13:09:37.775Z,2.35
2022-08-02T13:12:27.430Z,3.63
2022-08-02T13:15:48.990Z,8.15
2022-08-02T13:18:24.610Z,2.42
2022-08-02T13:21:31.857Z,1.70
2022-08-02T13:24:40.991Z,2.33
2022-08-02T13:27:38.061Z,5.65
2022-08-02T13:30:26.391Z,4.13
2022-08-02T13:33:14.809Z,2.20
2022-08-02T13:36:03.085Z,1.30
2022-08-02T13:38:57.434Z,4.03
2022-08-02T13:41:45.738Z,1.98
2022-08-02T13:44:35.621Z,1.98
2022-08-02T13:50:25.477Z,1.23
2022-08-02T13:53:15.770Z,2.38
2022-08-02T13:56:04.280Z,3.95
2022-08-02T13:58:52.607Z,2.63
2022-08-02T14:01:42.315Z,3.78
2022-08-02T14:04:30.879Z,2.17
2022-08-02T14:07:19.177Z,5.03
2022-08-02T14:10:08.735Z,2.50
2022-08-02T14:12:57.012Z,1.35
2022-08-02T14:15:45.436Z,3.67
2022-08-02T14:18:35.107Z,2.67
2022-08-02T14:21:23.381Z,1.15
2022-08-02T14:24:11.707Z,9.80
2022-08-02T14:26:59.924Z,2.35
2022-08-02T14:29:51.345Z,1.65
2022-08-02T14:32:39.668Z,2.10
2022-08-02T14:35:29.398Z,1.67
2022-08-02T14:44:08.292Z,2.75
2022-08-02T14:46:57.114Z,2.95
2022-08-02T14:49:50.069Z,1.45
2022-08-02T14:52:40.248Z,2.90
2022-08-02T14:55:28.490Z,0.75
2022-08-02T14:58:16.841Z,2.50
2022-08-02T15:01:05.272Z,1.30
2022-08-02T15:03:53.692Z,4.38
2022-08-02T15:06:42.021Z,1.65
2022-08-02T15:09:31.635Z,5.05
2022-08-02T15:15:09.149Z,2.90
2022-08-02T15:17:57.466Z,1.77
2022-08-02T15:20:57.149Z,2.97
2022-08-02T15:23:46.309Z,2.28
2022-08-02T15:26:36.010Z,2.35
2022-08-02T15:29:24.394Z,2.75
2022-08-02T15:32:13.474Z,3.45
2022-08-02T15:35:02.061Z,4.28
2022-08-02T15:37:50.383Z,2.40
2022-08-02T15:40:38.640Z,2.22
2022-08-02T15:43:28.482Z,2.80
2022-08-02T15:46:16.803Z,4.80
2022-08-02T15:49:05.279Z,1.65
2022-08-02T15:51:54.014Z,3.40
2022-08-02T15:54:42.377Z,1.63
2022-08-02T15:57:30.785Z,1.52
2022-08-02T16:00:25.969Z,1.63
2022-08-02T16:03:14.403Z,3.38
2022-08-02T16:06:05.182Z,2.63
2022-08-02T16:08:54.939Z,6.32
2022-08-02T16:14:31.597Z,3.45
2022-08-02T16:17:48.499Z,4.63
2022-08-02T16:20:29.506Z,2.25
2022-08-02T16:23:17.781Z,2.58
2022-08-02T16:26:06.110Z,3.17
2022-08-02T16:28:54.741Z,1.92
2022-08-02T16:31:43.251Z,3.13
2022-08-02T16:34:45.155Z,4.13
2022-08-02T16:37:50.425Z,1.40
2022-08-02T16:43:29.100Z,2.95
2022-08-02T16:46:19.046Z,1.55
2022-08-02T16:50:05.724Z,1.15
2022-08-02T16:52:19.082Z,8.40
2022-08-02T16:55:10.902Z,1.92
2022-08-02T16:58:01.123Z,3.78
2022-08-02T17:00:49.742Z,2.53
2022-08-02T17:03:56.599Z,3.20
2022-08-02T17:06:47.884Z,1.13
2022-08-02T17:10:01.807Z,4.88
2022-08-02T17:12:51.458Z,1.50
2022-08-02T17:16:01.694Z,2.67
2022-08-02T17:18:49.287Z,1.98
2022-08-02T17:21:37.790Z,1.20
2022-08-02T17:24:26.129Z,1.50
2022-08-02T17:27:17.197Z,1.88
2022-08-02T17:30:10.897Z,2.33
2022-08-02T17:33:00.646Z,0.80
2022-08-02T17:35:53.034Z,0.88
2022-08-02T17:38:51.691Z,1.50
2022-08-02T17:41:49.456Z,1.43
2022-08-02T17:44:41.469Z,2.30
2022-08-02T17:47:33.572Z,1.98
2022-08-02T17:50:30.944Z,1.08
2022-08-02T17:53:20.142Z,3.22
2022-08-02T17:56:08.586Z,4.53
2022-08-02T17:58:56.976Z,3.00
2022-08-02T18:01:52.524Z,1.35
2022-08-02T18:04:41.714Z,1.10
2022-08-02T18:10:42.786Z,2.33
2022-08-02T18:13:32.923Z,1.58
2022-08-02T18:16:21.717Z,0.70
2022-08-02T18:19:17.007Z,2.25
2022-08-02T18:22:05.735Z,1.05
2022-08-02T18:24:54.171Z,0.88
2022-08-02T18:27:42.785Z,4.50
2022-08-02T18:30:31.514Z,1.48
2022-08-02T18:33:58.785Z,1.45
2022-08-02T18:36:32.337Z,2.63
2022-08-02T18:39:20.574Z,0.70
2022-08-02T18:45:07.270Z,2.58
2022-08-02T18:47:55.571Z,3.15
2022-08-02T18:50:46.898Z,2.35
2022-08-02T18:53:41.545Z,2.05
2022-08-02T18:56:32.610Z,1.65
2022-08-02T18:59:21.091Z,1.00
2022-08-02T19:02:09.411Z,2.40
2022-08-02T19:04:57.671Z,2.17
2022-08-02T19:07:51.233Z,1.45
2022-08-02T19:10:49.101Z,0.90
2022-08-02T19:13:42.601Z,1.48
2022-08-02T19:16:37.798Z,1.30
2022-08-02T19:19:28.874Z,1.70
2022-08-02T19:22:20.032Z,1.13
2022-08-02T19:25:14.290Z,1.33
2022-08-02T19:28:08.323Z,0.93
2022-08-02T19:30:57.388Z,1.33
2022-08-02T19:34:05.804Z,3.75
2022-08-02T19:36:54.114Z,4.40
2022-08-02T19:39:42.604Z,4.13
2022-08-02T19:42:50.053Z,1.95
2022-08-02T19:45:50.294Z,1.55
2022-08-02T19:48:40.780Z,3.42
2022-08-02T19:51:54.683Z,1.67
2022-08-02T19:54:55.705Z,2.38
2022-08-02T19:57:45.062Z,0.95
2022-08-02T20:00:35.911Z,1.40
2022-08-02T20:03:39.853Z,1.42
2022-08-02T20:06:33.851Z,1.50
2022-08-02T20:09:33.582Z,4.22
2022-08-02T20:12:37.419Z,3.85
2022-08-02T20:15:55.919Z,1.67
2022-08-02T20:18:36.623Z,2.83
2022-08-02T20:21:36.041Z,2.45
2022-08-02T20:24:26.704Z,1.42
2022-08-02T20:27:21.787Z,1.63
2022-08-02T20:30:13.625Z,2.28
2022-08-02T20:33:21.669Z,2.93
2022-08-02T20:36:12.166Z,3.50
2022-08-02T20:39:01.296Z,4.80
2022-08-02T20:41:53.046Z,3.28
2022-08-02T20:44:46.920Z,2.65
2022-08-02T20:47:39.904Z,2.85
2022-08-02T20:50:46.105Z,5.10
2022-08-02T20:53:54.942Z,1.48
2022-08-02T20:56:44.643Z,1.50
2022-08-02T20:59:40.720Z,4.20
2022-08-02T21:02:31.119Z,2.22
2022-08-02T21:05:20.333Z,1.42
2022-08-02T21:08:15.539Z,1.55
2022-08-02T21:11:09.631Z,2.95
2022-08-02T21:14:06.613Z,1.50
2022-08-02T21:16:56.636Z,1.77
2022-08-02T21:19:45.021Z,4.10
2022-08-02T21:22:33.406Z,3.33
2022-08-02T21:25:21.747Z,2.10
2022-08-02T21:28:38.281Z,5.13
2022-08-02T21:31:35.477Z,1.40
2022-08-02T21:34:27.013Z,2.38
2022-08-02T21:37:16.662Z,1.75
2022-08-02T21:40:05.900Z,2.00
2022-08-02T21:42:57.713Z,2.45
2022-08-02T21:45:53.853Z,2.63
2022-08-02T21:48:44.564Z,1.70
2022-08-02T21:51:34.349Z,4.03
2022-08-02T21:54:23.739Z,1.80
2022-08-02T21:57:15.736Z,4.13
2022-08-02T22:00:12.638Z,3.22
2022-08-02T22:03:23.238Z,3.42
2022-08-02T22:06:10.600Z,1.80
2022-08-02T22:08:58.980Z,4.75
2022-08-02T22:11:47.290Z,4.72
2022-08-02T22:14:36.374Z,4.15
2022-08-02T22:17:51.963Z,4.22
2022-08-02T22:20:39.950Z,3.38
2022-08-02T22:23:38.927Z,2.40
2022-08-02T22:26:37.557Z,4.35
2022-08-02T22:29:26.248Z,4.72
2022-08-02T22:32:34.513Z,1.50
2022-08-02T22:35:22.009Z,2.08
2022-08-02T22:38:15.001Z,1.90
2022-08-02T22:41:06.059Z,3.20
2022-08-02T22:43:57.616Z,1.67
2022-08-02T22:46:45.938Z,3.08
2022-08-02T22:49:38.189Z,2.95
2022-08-02T22:52:42.615Z,2.67
2022-08-02T22:55:41.566Z,3.53
2022-08-02T22:58:30.562Z,1.73
2022-08-02T22:58:43.326Z,1.05
2022-08-02T23:01:19.933Z,4.25
2022-08-02T23:04:08.262Z,5.32
2022-08-02T23:06:56.503Z,5.00
2022-08-02T23:09:45.030Z,3.47
2022-08-02T23:12:34.701Z,4.47
2022-08-02T23:15:23.270Z,5.03
2022-08-02T23:18:29.335Z,2.47
2022-08-02T23:21:46.089Z,2.42
2022-08-02T23:24:27.097Z,2.53
2022-08-02T23:27:15.911Z,2.92
2022-08-02T23:30:06.917Z,4.13
2022-08-02T23:32:55.274Z,4.82
2022-08-02T23:35:43.970Z,2.55
2022-08-02T23:38:32.287Z,4.40
2022-08-02T23:41:20.628Z,3.55
2022-08-02T23:44:14.037Z,4.07
2022-08-02T23:47:04.551Z,2.10
2022-08-02T23:49:52.850Z,5.95
2022-08-02T23:52:41.172Z,3.45
2022-08-02T23:55:29.580Z,2.95
2022-08-02T23:58:18.917Z,4.82
